Time;durP1;ratioP1;P1;durP2;ratioP2;P2;SDS_P1;SDS_P2;PMS_P1;PMS_P2;Temp;Humidity;BMP_temperature;BMP_pressure;BME280_temperature;BME280_humidity;BME280_pressure;Samples;Min_cycle;Max_cycle;Signal;HPM_P1;HPM_P2
2021/09/01 00:00:56;;;;;;;12.07;4.65;;;22.50;60.90;;;;;;3142617;28;20094;-85
2021/09/01 00:02:29;;;;;;;9.73;4.40;;;22.60;60.90;;;;;;3136575;28;20680;-85
2021/09/01 00:04:00;;;;;;;8.35;4.00;;;22.50;60.90;;;;;;3146123;28;20049;-85
2021/09/01 00:05:31;;;;;;;10.68;4.43;;;22.60;61.00;;;;;;3149082;28;20045;-86
2021/09/01 00:07:03;;;;;;;10.75;4.68;;;22.60;61.00;;;;;;3149241;28;20040;-85
2021/09/01 00:08:35;;;;;;;9.90;4.93;;;22.50;61.00;;;;;;3148807;28;20056;-84
2021/09/01 00:10:07;;;;;;;10.82;4.30;;;22.50;60.90;;;;;;3149765;28;20499;-85
2021/09/01 00:11:39;;;;;;;11.48;4.30;;;22.50;60.90;;;;;;3149409;28;20652;-85
2021/09/01 00:13:11;;;;;;;10.23;4.45;;;22.50;60.90;;;;;;3144916;28;20056;-85
2021/09/01 00:14:43;;;;;;;11.30;4.50;;;22.60;61.00;;;;;;3139310;28;20127;-84
2021/09/01 00:16:26;;;;;;;9.52;4.13;;;22.50;60.90;;;;;;3147798;28;20287;-85
2021/09/01 00:17:58;;;;;;;9.23;4.78;;;22.50;61.60;;;;;;3149106;28;20438;-86
2021/09/01 00:19:30;;;;;;;8.25;4.40;;;22.50;60.90;;;;;;3149518;28;20052;-86
2021/09/01 00:21:02;;;;;;;9.60;4.43;;;22.50;61.00;;;;;;3149344;28;20045;-85
2021/09/01 00:22:32;;;;;;;9.27;4.30;;;22.50;61.00;;;;;;3149409;28;20098;-84
2021/09/01 00:24:05;;;;;;;9.65;4.38;;;22.50;61.00;;;;;;3149316;28;20106;-86
2021/09/01 00:25:36;;;;;;;9.05;4.28;;;22.50;61.00;;;;;;3149101;28;20059;-87
2021/09/01 00:27:08;;;;;;;9.07;4.57;;;22.50;61.00;;;;;;3149571;28;20060;-85
2021/09/01 00:28:40;;;;;;;10.27;4.97;;;22.50;61.00;;;;;;3148324;28;20052;-85
2021/09/01 00:30:12;;;;;;;8.18;4.50;;;22.50;61.00;;;;;;3148159;28;20415;-85
2021/09/01 00:31:45;;;;;;;10.00;4.43;;;22.50;61.00;;;;;;3140933;28;20053;-85
2021/09/01 00:33:17;;;;;;;9.02;4.60;;;22.50;61.00;;;;;;3144302;28;20045;-85
2021/09/01 00:34:49;;;;;;;8.73;4.45;;;22.50;61.00;;;;;;3136353;28;20064;-85
2021/09/01 00:36:20;;;;;;;6.82;4.25;;;22.50;61.00;;;;;;3136929;28;20044;-85
2021/09/01 00:37:52;;;;;;;10.15;4.85;;;22.50;60.90;;;;;;3135803;28;20053;-85
2021/09/01 00:39:24;;;;;;;9.27;4.63;;;22.40;60.90;;;;;;3136243;28;20049;-85
2021/09/01 00:40:56;;;;;;;10.90;4.90;;;22.50;61.00;;;;;;3136459;28;20049;-85
2021/09/01 00:42:27;;;;;;;11.55;4.43;;;22.50;61.00;;;;;;3136602;28;20044;-86
2021/09/01 00:44:02;;;;;;;7.90;4.30;;;22.40;60.90;;;;;;3135977;28;20528;-86
2021/09/01 00:45:35;;;;;;;9.95;4.50;;;22.50;61.00;;;;;;3135233;28;20534;-85
2021/09/01 00:47:08;;;;;;;8.90;4.55;;;22.40;60.90;;;;;;3136489;28;20048;-85
2021/09/01 00:48:40;;;;;;;10.05;4.63;;;22.40;61.00;;;;;;3135778;28;20044;-85
2021/09/01 00:50:12;;;;;;;11.27;4.90;;;22.40;61.60;;;;;;3136807;28;20056;-87
2021/09/01 00:51:44;;;;;;;8.40;4.43;;;22.40;60.90;;;;;;3136113;28;20057;-87
2021/09/01 00:53:16;;;;;;;9.25;4.55;;;22.40;61.00;;;;;;3136044;28;20113;-86
2021/09/01 00:54:48;;;;;;;10.43;4.65;;;22.40;60.90;;;;;;3136454;28;20049;-85
2021/09/01 00:56:20;;;;;;;9.20;4.35;;;22.40;61.00;;;;;;3136825;28;20049;-86
2021/09/01 00:57:52;;;;;;;9.60;4.55;;;22.30;60.90;;;;;;3135716;28;20677;-85
2021/09/01 00:59:24;;;;;;;9.23;4.50;;;22.40;61.00;;;;;;3135996;28;20056;-85
2021/09/01 01:01:14;;;;;;;9.57;4.05;;;22.40;61.00;;;;;;3140105;28;20557;-85
2021/09/01 01:02:47;;;;;;;8.10;4.43;;;22.40;60.90;;;;;;3135467;28;20094;-85
2021/09/01 01:04:18;;;;;;;8.07;4.43;;;22.40;61.00;;;;;;3136204;28;20495;-86
2021/09/01 01:05:50;;;;;;;8.95;4.25;;;22.40;61.00;;;;;;3136227;28;20056;-88
2021/09/01 01:07:22;;;;;;;8.80;4.32;;;22.30;61.00;;;;;;3136225;28;20087;-85
2021/09/01 01:08:54;;;;;;;10.68;4.35;;;22.30;61.00;;;;;;3135147;28;20045;-85
2021/09/01 01:10:25;;;;;;;10.05;4.72;;;22.30;60.90;;;;;;3135275;28;20137;-85
2021/09/01 01:12:03;;;;;;;8.55;4.38;;;22.30;60.90;;;;;;3134918;28;20045;-85
2021/09/01 01:13:34;;;;;;;7.05;4.30;;;22.30;61.00;;;;;;3146427;28;20053;-85
2021/09/01 01:15:07;;;;;;;7.05;4.05;;;22.30;61.00;;;;;;3135756;28;20125;-85
2021/09/01 01:16:39;;;;;;;10.07;4.35;;;22.30;60.90;;;;;;3135054;28;20526;-85
2021/09/01 01:18:12;;;;;;;10.82;4.68;;;22.30;60.90;;;;;;3134138;28;20451;-85
2021/09/01 01:19:45;;;;;;;10.00;4.40;;;22.30;60.90;;;;;;3135504;28;20052;-85
2021/09/01 01:21:17;;;;;;;;;;;22.30;60.90;;;;;;3136198;28;20049;-85
2021/09/01 01:22:49;;;;;;;9.05;4.22;;;22.30;60.90;;;;;;3135315;28;20287;-85
2021/09/01 01:24:20;;;;;;;9.48;4.50;;;22.40;61.00;;;;;;3136032;28;20122;-86
2021/09/01 01:25:53;;;;;;;8.90;4.40;;;22.30;60.90;;;;;;3135095;28;20044;-86
2021/09/01 01:27:32;;;;;;;9.73;4.50;;;22.30;60.90;;;;;;3135025;28;20535;-86
2021/09/01 01:29:05;;;;;;;10.35;4.72;;;22.30;61.00;;;;;;3133960;28;20048;-85
2021/09/01 01:30:37;;;;;;;7.38;4.40;;;22.30;61.00;;;;;;3133766;28;20072;-85
2021/09/01 01:32:09;;;;;;;10.35;4.70;;;22.30;61.00;;;;;;3146067;28;20063;-84
2021/09/01 01:33:40;;;;;;;8.60;4.35;;;22.30;61.00;;;;;;3146779;28;20052;-86
2021/09/01 01:35:13;;;;;;;8.90;4.40;;;22.30;61.00;;;;;;3147113;28;20514;-85
2021/09/01 01:36:44;;;;;;;9.20;4.47;;;22.30;61.00;;;;;;3146950;28;20053;-85
2021/09/01 01:38:18;;;;;;;10.63;4.57;;;22.30;61.00;;;;;;3146460;28;20427;-86
2021/09/01 01:39:49;;;;;;;8.38;4.65;;;22.30;61.00;;;;;;3147663;28;20056;-85
2021/09/01 01:41:22;;;;;;;6.85;4.30;;;22.30;61.00;;;;;;3147108;28;20055;-85
2021/09/01 01:42:55;;;;;;;9.80;4.80;;;22.20;61.00;;;;;;3146652;28;20052;-85
2021/09/01 01:44:26;;;;;;;8.57;4.40;;;22.20;61.00;;;;;;3147568;28;20427;-85
2021/09/01 01:45:58;;;;;;;8.73;4.60;;;22.30;61.10;;;;;;3146834;28;20044;-84
2021/09/01 01:47:29;;;;;;;8.35;4.40;;;22.20;61.10;;;;;;3147322;28;20423;-85
2021/09/01 01:49:01;;;;;;;8.85;4.43;;;22.30;61.10;;;;;;3146125;28;20037;-87
2021/09/01 01:50:32;;;;;;;9.30;4.30;;;22.20;61.10;;;;;;3147348;28;20048;-86
2021/09/01 01:52:05;;;;;;;7.97;4.30;;;22.20;61.10;;;;;;3147327;28;20071;-85
2021/09/01 01:53:36;;;;;;;9.48;4.63;;;22.20;61.10;;;;;;3147251;28;20052;-85
2021/09/01 01:55:09;;;;;;;8.65;4.32;;;22.20;61.10;;;;;;3147624;28;20044;-85
2021/09/01 01:56:43;;;;;;;;;;;22.20;61.10;;;;;;3148183;28;20067;-86
2021/09/01 01:58:15;;;;;;;;;;;22.20;61.10;;;;;;3147042;28;19920;-85
2021/09/01 01:59:46;;;;;;;9.35;4.53;;;22.20;61.00;;;;;;3147585;28;20248;-85
2021/09/01 02:01:18;;;;;;;10.07;4.72;;;22.20;61.00;;;;;;3142933;28;20045;-85
2021/09/01 02:02:50;;;;;;;6.72;4.20;;;22.20;61.10;;;;;;3142953;28;20105;-85
2021/09/01 02:04:22;;;;;;;8.32;4.20;;;22.20;61.10;;;;;;3147574;28;20400;-86
2021/09/01 02:05:54;;;;;;;9.85;4.78;;;22.20;61.10;;;;;;3147651;28;20048;-85
2021/09/01 02:07:25;;;;;;;8.30;4.90;;;22.20;61.10;;;;;;3147720;28;20561;-85
2021/09/01 02:08:56;;;;;;;8.88;4.50;;;22.20;61.10;;;;;;3146549;28;20043;-85
2021/09/01 02:10:28;;;;;;;8.65;4.32;;;22.20;61.20;;;;;;3147563;28;20048;-85
2021/09/01 02:12:01;;;;;;;8.95;4.40;;;22.20;61.20;;;;;;3147526;28;20056;-86
2021/09/01 02:13:33;;;;;;;7.70;4.25;;;22.20;61.20;;;;;;3135217;28;20140;-85
2021/09/01 02:15:06;;;;;;;8.02;4.57;;;22.20;61.20;;;;;;3142769;28;20048;-86
2021/09/01 02:16:37;;;;;;;;;;;22.20;61.30;;;;;;3135769;28;20064;-85
2021/09/01 02:18:09;;;;;;;9.18;4.78;;;22.20;61.20;;;;;;3134728;28;20549;-88
2021/09/01 02:19:40;;;;;;;8.02;4.80;;;22.20;61.20;;;;;;3135272;28;20063;-85
2021/09/01 02:21:11;;;;;;;9.35;4.70;;;22.20;61.30;;;;;;3134414;28;20045;-85
2021/09/01 02:22:43;;;;;;;9.40;4.50;;;22.20;61.30;;;;;;3134611;28;20049;-85
2021/09/01 02:24:15;;;;;;;9.75;4.28;;;22.20;61.30;;;;;;3133445;28;20060;-87
2021/09/01 02:25:47;;;;;;;9.25;4.60;;;22.10;61.20;;;;;;3133207;28;20044;-88
2021/09/01 02:27:19;;;;;;;7.57;4.47;;;22.10;61.20;;;;;;3134247;28;20053;-85
2021/09/01 02:28:50;;;;;;;8.70;4.32;;;22.10;61.30;;;;;;3133490;28;20045;-86
2021/09/01 02:30:23;;;;;;;10.70;4.55;;;22.10;62.00;;;;;;3133694;28;20053;-85
2021/09/01 02:31:54;;;;;;;8.48;4.65;;;22.10;61.30;;;;;;3142432;28;20539;-85
2021/09/01 02:33:26;;;;;;;8.30;4.63;;;22.10;61.30;;;;;;3134086;28;20041;-85
2021/09/01 02:34:58;;;;;;;8.15;4.65;;;22.10;61.40;;;;;;3134377;28;20045;-85
2021/09/01 02:36:30;;;;;;;5.85;4.20;;;22.10;61.40;;;;;;3134274;28;20126;-85
2021/09/01 02:38:04;;;;;;;8.02;4.63;;;22.10;61.40;;;;;;3133332;28;20036;-85
2021/09/01 02:39:35;;;;;;;6.97;4.18;;;22.10;61.40;;;;;;3133242;28;20048;-87
2021/09/01 02:41:07;;;;;;;9.73;4.35;;;22.10;61.40;;;;;;3133754;28;20064;-85
2021/09/01 02:42:40;;;;;;;9.45;4.55;;;22.10;61.30;;;;;;3133146;28;20458;-85
2021/09/01 02:44:12;;;;;;;8.45;4.88;;;22.10;61.40;;;;;;3133524;28;20063;-86
2021/09/01 02:45:44;;;;;;;8.50;4.47;;;22.10;61.40;;;;;;3132519;28;20045;-87
2021/09/01 02:47:15;;;;;;;8.77;4.82;;;22.10;61.50;;;;;;3132886;28;20057;-85
2021/09/01 02:48:48;;;;;;;9.48;4.88;;;22.10;61.50;;;;;;3132584;28;20041;-85
2021/09/01 02:50:19;;;;;;;8.60;4.68;;;22.10;61.50;;;;;;3133605;28;20056;-85
2021/09/01 02:51:51;;;;;;;10.82;4.72;;;22.10;61.40;;;;;;3133031;28;20049;-85
2021/09/01 02:53:23;;;;;;;8.32;4.70;;;22.10;61.50;;;;;;3132538;28;20503;-85
2021/09/01 02:54:55;;;;;;;10.88;5.15;;;22.00;61.40;;;;;;3133909;28;20098;-86
2021/09/01 02:56:25;;;;;;;10.07;4.90;;;22.10;61.50;;;;;;3133014;28;20103;-87
2021/09/01 02:57:58;;;;;;;9.45;5.13;;;22.10;61.50;;;;;;3131994;28;20503;-85
2021/09/01 02:59:30;;;;;;;9.13;4.97;;;22.00;61.40;;;;;;3132320;28;20049;-85
2021/09/01 03:01:02;;;;;;;9.40;4.97;;;22.10;61.50;;;;;;3137671;28;20048;-84
2021/09/01 03:02:33;;;;;;;11.32;5.10;;;22.10;61.50;;;;;;3139598;28;20048;-85
2021/09/01 03:04:05;;;;;;;8.70;5.05;;;22.00;61.40;;;;;;3145887;28;20083;-85
2021/09/01 03:05:37;;;;;;;9.00;5.30;;;22.00;61.40;;;;;;3146397;28;20049;-85
2021/09/01 03:07:08;;;;;;;8.35;5.03;;;22.00;61.40;;;;;;3146341;28;20049;-85
2021/09/01 03:08:39;;;;;;;7.63;4.90;;;22.00;61.40;;;;;;3144936;28;20049;-85
2021/09/01 03:10:11;;;;;;;8.38;5.28;;;22.00;61.50;;;;;;3146228;28;20056;-86
2021/09/01 03:11:42;;;;;;;9.20;5.20;;;22.00;61.40;;;;;;3146246;28;20052;-87
2021/09/01 03:13:15;;;;;;;8.13;5.00;;;22.00;61.40;;;;;;3136197;28;20079;-85
2021/09/01 03:14:47;;;;;;;11.93;5.47;;;22.00;61.40;;;;;;3133483;28;20056;-85
2021/09/01 03:16:18;;;;;;;10.60;5.22;;;22.00;61.40;;;;;;3133211;28;20044;-85
2021/09/01 03:17:50;;;;;;;11.10;5.13;;;22.00;61.50;;;;;;3133193;28;20052;-86
2021/09/01 03:19:22;;;;;;;8.73;5.05;;;22.00;61.40;;;;;;3133355;28;20381;-86
2021/09/01 03:20:54;;;;;;;8.50;5.70;;;22.00;61.40;;;;;;3133676;28;20049;-85
2021/09/01 03:22:26;;;;;;;9.57;5.30;;;22.00;61.40;;;;;;3134048;28;20345;-88
2021/09/01 03:23:57;;;;;;;8.63;5.32;;;22.00;61.40;;;;;;3133388;28;20466;-85
2021/09/01 03:25:29;;;;;;;10.25;5.35;;;22.00;61.40;;;;;;3133664;28;20052;-86
2021/09/01 03:27:01;;;;;;;8.13;5.10;;;22.00;61.40;;;;;;3133825;28;20061;-85
2021/09/01 03:28:34;;;;;;;9.88;5.18;;;22.00;61.40;;;;;;3132944;28;20045;-85
2021/09/01 03:30:07;;;;;;;11.30;5.60;;;22.00;61.40;;;;;;3132989;28;20045;-86
2021/09/01 03:31:38;;;;;;;12.25;5.97;;;22.00;61.40;;;;;;3145250;28;20040;-85
2021/09/01 03:33:10;;;;;;;9.05;5.38;;;22.00;61.40;;;;;;3145446;28;20045;-88
2021/09/01 03:34:42;;;;;;;7.82;5.07;;;22.00;61.40;;;;;;3148587;28;20067;-84
2021/09/01 03:36:13;;;;;;;8.27;5.20;;;22.00;61.40;;;;;;3148353;28;20071;-85
2021/09/01 03:37:45;;;;;;;8.95;5.43;;;22.00;61.40;;;;;;3147931;28;20048;-85
2021/09/01 03:39:16;;;;;;;10.60;6.07;;;22.00;61.40;;;;;;3147978;28;20048;-85
2021/09/01 03:40:48;;;;;;;8.73;5.85;;;22.00;61.40;;;;;;3148990;28;20052;-85
2021/09/01 03:42:19;;;;;;;8.70;5.57;;;22.00;61.50;;;;;;3149257;28;20059;-85
2021/09/01 03:43:52;;;;;;;10.18;5.65;;;21.90;61.30;;;;;;3148759;28;20055;-85
2021/09/01 03:45:24;;;;;;;10.63;6.03;;;22.00;61.40;;;;;;3148566;28;24498;-85
2021/09/01 03:46:56;;;;;;;9.80;5.50;;;22.00;61.40;;;;;;3148602;28;20053;-85
2021/09/01 03:48:27;;;;;;;9.07;5.13;;;22.00;61.40;;;;;;3147688;28;20071;-85
2021/09/01 03:49:59;;;;;;;8.10;5.43;;;21.90;61.40;;;;;;3148322;28;20040;-85
2021/09/01 03:51:31;;;;;;;9.68;5.30;;;22.00;61.50;;;;;;3148264;28;20048;-85
2021/09/01 03:53:02;;;;;;;10.43;6.22;;;22.10;61.00;;;;;;3147589;28;20048;-85
2021/09/01 03:54:34;;;;;;;9.35;5.50;;;22.10;61.20;;;;;;3148153;28;20068;-85
2021/09/01 03:56:06;;;;;;;10.65;5.50;;;22.20;60.90;;;;;;3148315;28;20521;-85
2021/09/01 03:57:38;;;;;;;8.23;4.90;;;22.30;60.90;;;;;;3147905;28;20484;-85
2021/09/01 03:59:11;;;;;;;8.45;5.15;;;22.50;60.30;;;;;;3147710;28;20054;-86
2021/09/01 04:00:43;;;;;;;8.82;5.57;;;22.60;59.90;;;;;;3143455;28;20045;-85
2021/09/01 04:02:14;;;;;;;8.95;5.40;;;22.70;59.60;;;;;;3139549;28;20049;-85
2021/09/01 04:03:46;;;;;;;8.80;5.35;;;22.80;59.20;;;;;;3147680;28;20075;-85
2021/09/01 04:05:18;;;;;;;9.55;5.55;;;22.90;58.90;;;;;;3148308;28;20139;-85
2021/09/01 04:06:50;;;;;;;8.77;5.05;;;23.00;58.60;;;;;;3148013;28;20045;-86
2021/09/01 04:08:22;;;;;;;9.10;5.20;;;23.10;58.40;;;;;;3147378;28;20044;-85
2021/09/01 04:09:53;;;;;;;8.27;5.18;;;23.20;58.00;;;;;;3148257;28;20507;-85
2021/09/01 04:11:25;;;;;;;9.93;5.38;;;23.30;57.90;;;;;;3148077;28;20049;-85
2021/09/01 04:12:57;;;;;;;11.60;5.25;;;23.30;57.50;;;;;;3146407;28;20044;-86
2021/09/01 04:14:30;;;;;;;8.88;5.20;;;23.40;57.40;;;;;;3141356;28;20403;-85
2021/09/01 04:16:01;;;;;;;7.60;5.38;;;23.40;57.30;;;;;;3137296;28;20052;-86
2021/09/01 04:17:33;;;;;;;9.52;4.90;;;23.40;57.30;;;;;;3136115;28;20049;-87
2021/09/01 04:19:05;;;;;;;8.60;5.00;;;23.50;57.30;;;;;;3134691;28;20470;-85
2021/09/01 04:20:36;;;;;;;10.02;5.47;;;23.50;57.10;;;;;;3136067;28;20061;-87
2021/09/01 04:22:08;;;;;;;8.98;5.30;;;23.50;57.10;;;;;;3135537;28;20060;-85
2021/09/01 04:23:40;;;;;;;11.43;5.43;;;23.50;57.10;;;;;;3135334;28;20044;-85
2021/09/01 04:25:12;;;;;;;11.18;5.63;;;23.50;57.00;;;;;;3135541;28;20186;-85
2021/09/01 04:26:44;;;;;;;8.18;5.28;;;23.60;56.80;;;;;;3135608;28;20067;-85
2021/09/01 04:28:15;;;;;;;10.13;5.75;;;23.60;56.70;;;;;;3134423;28;20051;-85
2021/09/01 04:29:48;;;;;;;8.93;5.03;;;23.60;56.70;;;;;;3135491;28;20048;-86
2021/09/01 04:31:20;;;;;;;10.00;5.43;;;23.70;56.50;;;;;;3143523;28;20063;-85
2021/09/01 04:32:51;;;;;;;9.48;5.70;;;23.70;56.50;;;;;;3139010;28;20057;-88
2021/09/01 04:34:22;;;;;;;9.65;5.30;;;23.70;56.40;;;;;;3147951;28;20123;-85
2021/09/01 04:35:54;;;;;;;8.75;5.30;;;23.70;56.40;;;;;;3147692;28;20047;-85
2021/09/01 04:37:26;;;;;;;10.02;5.40;;;23.70;56.40;;;;;;3147681;28;20067;-85
2021/09/01 04:38:58;;;;;;;10.32;5.50;;;23.70;56.40;;;;;;3146428;28;20094;-85
2021/09/01 04:40:30;;;;;;;9.80;5.80;;;23.70;56.30;;;;;;3147895;28;20135;-87
2021/09/01 04:42:02;;;;;;;10.55;6.00;;;23.80;56.80;;;;;;3147742;28;20064;-85
2021/09/01 04:43:33;;;;;;;10.60;6.00;;;23.80;56.20;;;;;;3147248;28;20089;-85
2021/09/01 04:45:11;;;;;;;10.82;6.10;;;23.80;56.20;;;;;;3145572;28;20072;-85
2021/09/01 04:46:43;;;;;;;11.25;6.00;;;23.80;56.10;;;;;;3147702;28;20044;-86
2021/09/01 04:48:14;;;;;;;8.57;6.10;;;23.80;56.10;;;;;;3146861;28;20044;-86
2021/09/01 04:49:46;;;;;;;9.88;6.03;;;23.80;56.60;;;;;;3147588;28;20044;-86
2021/09/01 04:51:18;;;;;;;11.60;6.07;;;23.90;56.10;;;;;;3147721;28;20067;-85
2021/09/01 04:52:50;;;;;;;9.10;6.40;;;23.80;56.00;;;;;;3147123;28;20048;-87
2021/09/01 04:54:22;;;;;;;10.57;6.07;;;23.80;56.10;;;;;;3147948;28;20052;-87
2021/09/01 04:55:53;;;;;;;10.40;6.40;;;23.80;56.00;;;;;;3148142;28;20479;-85
2021/09/01 04:57:25;;;;;;;10.30;6.28;;;23.90;55.90;;;;;;3147845;28;20040;-85
2021/09/01 04:58:57;;;;;;;11.50;6.75;;;23.80;55.90;;;;;;3146743;28;20093;-85
2021/09/01 05:00:30;;;;;;;11.30;6.10;;;23.90;55.90;;;;;;3146098;28;20041;-86
2021/09/01 05:02:02;;;;;;;10.40;6.50;;;23.80;55.90;;;;;;3139407;28;20063;-86
2021/09/01 05:03:34;;;;;;;11.18;6.40;;;23.90;56.00;;;;;;3147714;28;20044;-86
2021/09/01 05:05:07;;;;;;;11.85;6.45;;;23.90;56.30;;;;;;3149015;28;20055;-86
2021/09/01 05:06:39;;;;;;;26.83;7.03;;;23.90;56.30;;;;;;3148322;28;20101;-85
2021/09/01 05:08:11;;;;;;;12.32;6.57;;;23.90;56.30;;;;;;3147763;28;20037;-86
2021/09/01 05:09:42;;;;;;;11.07;6.22;;;24.00;56.10;;;;;;3148203;28;20052;-85
2021/09/01 05:11:14;;;;;;;16.33;7.18;;;24.00;56.10;;;;;;3148192;28;20060;-86
2021/09/01 05:12:48;;;;;;;12.55;6.53;;;24.10;56.10;;;;;;3147736;28;20048;-85
2021/09/01 05:14:20;;;;;;;12.50;6.88;;;24.00;56.20;;;;;;3148439;28;20051;-86
2021/09/01 05:15:53;;;;;;;11.85;6.65;;;24.00;56.00;;;;;;3147295;28;20106;-86
2021/09/01 05:17:24;;;;;;;12.00;7.22;;;24.00;56.30;;;;;;3148143;28;20052;-85
2021/09/01 05:18:56;;;;;;;13.65;6.78;;;23.90;56.40;;;;;;3147092;28;20071;-86
2021/09/01 05:20:28;;;;;;;21.48;7.35;;;23.90;56.60;;;;;;3147999;28;20045;-88
2021/09/01 05:22:01;;;;;;;11.20;6.55;;;23.90;56.90;;;;;;3148164;28;20454;-85
2021/09/01 05:23:33;;;;;;;;;;;23.90;57.10;;;;;;3148645;28;20044;-84
2021/09/01 05:25:06;;;;;;;15.57;6.43;;;24.00;57.10;;;;;;3148366;28;19921;-85
2021/09/01 05:26:37;;;;;;;;;;;24.00;57.40;;;;;;3148885;28;20510;-85
2021/09/01 05:28:09;;;;;;;10.98;6.10;;;24.00;57.40;;;;;;3147420;28;19954;-89
2021/09/01 05:29:43;;;;;;;12.75;6.70;;;24.00;57.30;;;;;;3148345;28;20553;-84
2021/09/01 05:31:18;;;;;;;13.27;7.03;;;24.00;57.30;;;;;;3143852;28;20044;-86
2021/09/01 05:32:51;;;;;;;11.60;6.53;;;24.00;57.30;;;;;;3147700;28;20052;-89
2021/09/01 05:34:23;;;;;;;11.45;6.18;;;24.00;57.20;;;;;;3145545;28;20048;-87
2021/09/01 05:35:54;;;;;;;14.13;7.07;;;24.00;57.20;;;;;;3144652;28;20052;-85
2021/09/01 05:37:27;;;;;;;14.63;6.70;;;24.00;57.20;;;;;;3148102;28;20040;-85
2021/09/01 05:38:59;;;;;;;11.75;6.38;;;24.00;57.30;;;;;;3147434;28;20102;-86
2021/09/01 05:40:32;;;;;;;15.07;6.60;;;24.00;57.40;;;;;;3148408;28;20059;-85
2021/09/01 05:42:04;;;;;;;18.45;6.93;;;24.00;57.50;;;;;;3147907;28;20045;-85
2021/09/01 05:43:35;;;;;;;14.68;6.55;;;24.00;57.50;;;;;;3147457;28;20051;-85
2021/09/01 05:45:08;;;;;;;10.65;6.25;;;24.00;57.60;;;;;;3146793;28;20064;-86
2021/09/01 05:46:41;;;;;;;11.63;6.38;;;23.90;57.60;;;;;;3147845;28;20056;-85
2021/09/01 05:48:13;;;;;;;22.20;7.18;;;23.90;57.70;;;;;;3146919;28;20044;-86
2021/09/01 05:49:46;;;;;;;12.32;6.90;;;23.90;57.60;;;;;;3148067;28;20044;-85
2021/09/01 05:51:17;;;;;;;15.88;6.00;;;23.90;57.70;;;;;;3148225;28;20059;-87
2021/09/01 05:52:49;;;;;;;13.20;6.38;;;23.90;58.00;;;;;;3147267;28;20045;-85
2021/09/01 05:54:21;;;;;;;12.15;6.68;;;23.90;57.90;;;;;;3146906;28;20048;-84
2021/09/01 05:55:53;;;;;;;11.15;6.25;;;23.90;58.10;;;;;;3135366;28;20056;-84
2021/09/01 05:57:32;;;;;;;15.77;6.80;;;23.90;58.10;;;;;;3134893;28;20495;-86
2021/09/01 05:59:07;;;;;;;10.35;5.95;;;23.80;58.10;;;;;;3133886;28;20547;-87
2021/09/01 06:00:40;;;;;;;16.13;6.38;;;23.90;58.10;;;;;;3137673;28;20044;-86
2021/09/01 06:02:17;;;;;;;9.80;6.35;;;23.80;58.10;;;;;;3136300;28;20078;-87
2021/09/01 06:03:49;;;;;;;9.50;5.75;;;23.80;58.10;;;;;;3135032;28;20048;-85
2021/09/01 06:05:21;;;;;;;14.50;6.03;;;23.90;58.00;;;;;;3139539;28;20044;-85
2021/09/01 06:06:53;;;;;;;11.40;6.13;;;24.00;58.00;;;;;;3145598;28;20044;-87
2021/09/01 06:08:25;;;;;;;12.50;5.78;;;24.00;57.90;;;;;;3138469;28;20098;-85
2021/09/01 06:09:58;;;;;;;13.48;5.75;;;23.90;58.10;;;;;;3134588;28;20496;-85
2021/09/01 06:11:30;;;;;;;9.45;5.75;;;23.90;58.10;;;;;;3140741;28;20052;-86
2021/09/01 06:13:03;;;;;;;11.32;5.60;;;23.90;58.20;;;;;;3145431;28;20726;-85
2021/09/01 06:14:35;;;;;;;12.40;6.00;;;23.90;58.10;;;;;;3147107;28;20052;-85
2021/09/01 06:16:06;;;;;;;10.65;5.78;;;23.90;58.10;;;;;;3135999;28;20052;-87
2021/09/01 06:17:39;;;;;;;10.95;5.78;;;23.90;58.10;;;;;;3141519;28;20052;-85
2021/09/01 06:19:11;;;;;;;13.55;5.70;;;23.90;58.00;;;;;;3146911;28;20045;-85
2021/09/01 06:20:43;;;;;;;10.35;6.00;;;23.90;57.90;;;;;;3147217;28;20051;-86
2021/09/01 06:22:15;;;;;;;11.35;5.65;;;24.00;57.80;;;;;;3135319;28;20049;-84
2021/09/01 06:23:46;;;;;;;10.77;5.63;;;24.00;57.70;;;;;;3134298;28;20705;-85
2021/09/01 06:25:18;;;;;;;11.00;6.18;;;24.00;57.80;;;;;;3135097;28;20049;-85
2021/09/01 06:26:50;;;;;;;8.25;5.72;;;24.00;57.70;;;;;;3134655;28;20484;-85
2021/09/01 06:28:22;;;;;;;10.48;5.68;;;24.00;57.60;;;;;;3133962;28;20037;-85
2021/09/01 06:29:53;;;;;;;15.50;5.95;;;24.00;57.60;;;;;;3135351;28;20052;-86
2021/09/01 06:31:26;;;;;;;13.63;6.03;;;24.00;57.70;;;;;;3139727;28;20041;-85
2021/09/01 06:32:59;;;;;;;11.18;5.75;;;24.00;57.70;;;;;;3145528;28;20097;-86
2021/09/01 06:34:31;;;;;;;11.68;5.68;;;24.00;57.80;;;;;;3148182;28;20048;-84
2021/09/01 06:36:03;;;;;;;13.23;6.07;;;24.00;57.80;;;;;;3148461;28;20048;-85
2021/09/01 06:37:36;;;;;;;12.23;5.77;;;24.00;57.90;;;;;;3147730;28;20427;-88
2021/09/01 06:39:08;;;;;;;11.63;6.20;;;24.00;58.00;;;;;;3146408;28;20060;-87
2021/09/01 06:40:39;;;;;;;15.23;6.28;;;24.00;58.30;;;;;;3146715;28;20051;-85
2021/09/01 06:42:11;;;;;;;11.32;6.03;;;23.90;58.50;;;;;;3146362;28;20102;-85
2021/09/01 06:43:43;;;;;;;17.75;6.72;;;24.00;58.50;;;;;;3146324;28;20546;-86
2021/09/01 06:45:15;;;;;;;17.35;6.55;;;24.00;58.70;;;;;;3145959;28;20059;-86
2021/09/01 06:46:47;;;;;;;14.73;5.88;;;24.00;58.70;;;;;;3146789;28;20064;-85
2021/09/01 06:48:21;;;;;;;12.53;7.00;;;24.00;58.70;;;;;;3145701;28;20040;-86
2021/09/01 06:49:52;;;;;;;12.23;6.65;;;24.00;58.80;;;;;;3147204;28;20053;-86
2021/09/01 06:51:24;;;;;;;15.82;7.10;;;24.00;58.80;;;;;;3146304;28;20496;-86
2021/09/01 06:52:56;;;;;;;13.45;6.10;;;24.10;58.70;;;;;;3146024;28;20044;-86
2021/09/01 06:54:28;;;;;;;11.18;6.53;;;24.10;58.40;;;;;;3146804;28;20114;-86
2021/09/01 06:56:00;;;;;;;13.02;6.45;;;24.10;58.40;;;;;;3146584;28;20057;-85
2021/09/01 06:57:31;;;;;;;13.17;6.50;;;24.10;58.40;;;;;;3147387;28;20550;-86
2021/09/01 06:59:03;;;;;;;9.20;6.35;;;24.10;58.30;;;;;;3145722;28;20053;-86
2021/09/01 07:00:35;;;;;;;13.82;6.82;;;24.10;58.60;;;;;;3139342;28;20484;-86
2021/09/01 07:02:07;;;;;;;17.15;6.65;;;24.10;58.70;;;;;;3136732;28;20513;-86
2021/09/01 07:03:40;;;;;;;12.52;6.90;;;24.10;58.60;;;;;;3136857;28;20045;-86
2021/09/01 07:05:14;;;;;;;9.45;6.78;;;24.10;58.60;;;;;;3133981;28;20466;-86
2021/09/01 07:06:45;;;;;;;13.63;6.65;;;24.10;58.60;;;;;;3133960;28;20052;-86
2021/09/01 07:08:18;;;;;;;11.98;7.00;;;24.10;58.60;;;;;;3134809;28;20048;-87
2021/09/01 07:09:48;;;;;;;9.95;6.53;;;24.00;58.70;;;;;;3136758;28;20053;-86
2021/09/01 07:11:20;;;;;;;10.73;6.93;;;24.00;58.80;;;;;;3136856;28;20051;-85
2021/09/01 07:12:52;;;;;;;11.00;6.80;;;24.00;58.90;;;;;;3136187;28;20059;-85
2021/09/01 07:14:24;;;;;;;11.15;6.85;;;24.00;58.90;;;;;;3136341;28;20758;-86
2021/09/01 07:15:55;;;;;;;12.80;6.53;;;24.00;59.00;;;;;;3135666;28;20079;-86
2021/09/01 07:17:27;;;;;;;12.63;7.18;;;24.00;59.70;;;;;;3136569;28;20496;-88
2021/09/01 07:19:00;;;;;;;13.10;6.60;;;24.00;59.20;;;;;;3135236;28;20052;-86
2021/09/01 07:20:32;;;;;;;12.40;7.10;;;24.00;59.30;;;;;;3136420;28;20079;-87
2021/09/01 07:22:04;;;;;;;12.80;7.30;;;24.00;59.10;;;;;;3136228;28;20496;-86
2021/09/01 07:23:36;;;;;;;11.75;7.25;;;24.00;59.10;;;;;;3136331;28;20048;-87
2021/09/01 07:25:08;;;;;;;11.23;6.80;;;24.00;58.90;;;;;;3136411;28;20107;-85
2021/09/01 07:26:40;;;;;;;12.27;6.93;;;24.00;59.60;;;;;;3136603;28;20045;-86
2021/09/01 07:28:12;;;;;;;11.45;7.40;;;24.00;59.00;;;;;;3135774;28;20056;-86
2021/09/01 07:29:43;;;;;;;12.60;7.00;;;24.00;58.90;;;;;;3136643;28;20061;-85
2021/09/01 07:31:15;;;;;;;11.75;7.15;;;24.10;58.80;;;;;;3143853;28;20041;-86
2021/09/01 07:32:47;;;;;;;12.95;7.38;;;24.10;58.70;;;;;;3148253;28;20055;-86
2021/09/01 07:34:20;;;;;;;11.98;6.90;;;24.10;58.50;;;;;;3136370;28;20045;-86
2021/09/01 07:35:52;;;;;;;13.88;6.82;;;24.30;58.30;;;;;;3136028;28;20052;-86
2021/09/01 07:37:23;;;;;;;12.38;6.72;;;24.30;58.20;;;;;;3135846;28;20057;-86
2021/09/01 07:38:55;;;;;;;11.13;6.47;;;24.30;58.20;;;;;;3135289;28;20053;-86
2021/09/01 07:40:27;;;;;;;9.70;6.50;;;24.30;58.20;;;;;;3136322;28;20053;-86
2021/09/01 07:41:58;;;;;;;12.27;7.32;;;24.30;57.90;;;;;;3136212;28;20049;-87
2021/09/01 07:43:30;;;;;;;11.68;6.95;;;24.40;57.90;;;;;;3135710;28;20699;-85
2021/09/01 07:45:02;;;;;;;10.25;6.72;;;24.40;57.80;;;;;;3136195;28;20057;-85
2021/09/01 07:46:34;;;;;;;10.65;7.28;;;24.40;57.80;;;;;;3135216;28;20099;-86
2021/09/01 07:48:06;;;;;;;11.80;7.00;;;24.40;57.90;;;;;;3135359;28;20061;-86
2021/09/01 07:49:39;;;;;;;9.70;6.88;;;24.40;57.90;;;;;;3136102;28;20044;-87
2021/09/01 07:51:10;;;;;;;11.02;6.88;;;24.40;57.70;;;;;;3136118;28;20041;-86
2021/09/01 07:52:42;;;;;;;10.55;6.10;;;24.40;57.80;;;;;;3135693;28;20045;-85
2021/09/01 07:54:14;;;;;;;9.63;6.55;;;24.40;57.90;;;;;;3136414;28;20467;-85
2021/09/01 07:55:46;;;;;;;9.88;6.22;;;24.30;57.90;;;;;;3136387;28;20107;-85
2021/09/01 07:57:17;;;;;;;9.50;6.05;;;24.40;57.80;;;;;;3136176;28;20052;-87